sensor_id;sensor_type;location;lat;lon;timestamp;P1;durP1;ratioP1;P2;durP2;ratioP2
21233;SDS011;10774;42.178;26.578;2023-07-29T00:00:57;3.17;;;1.15;;
21233;SDS011;10774;42.178;26.578;2023-07-29T00:03:23;3.80;;;1.38;;
21233;SDS011;10774;42.178;26.578;2023-07-29T00:05:49;3.70;;;1.17;;
21233;SDS011;10774;42.178;26.578;2023-07-29T00:08:14;3.58;;;1.33;;
21233;SDS011;10774;42.178;26.578;2023-07-29T00:10:39;2.95;;;1.30;;
21233;SDS011;10774;42.178;26.578;2023-07-29T00:13:05;8.00;;;1.13;;
21233;SDS011;10774;42.178;26.578;2023-07-29T00:15:31;1.52;;;1.10;;
21233;SDS011;10774;42.178;26.578;2023-07-29T00:17:57;1.48;;;1.17;;
21233;SDS011;10774;42.178;26.578;2023-07-29T00:20:22;1.55;;;1.33;;
21233;SDS011;10774;42.178;26.578;2023-07-29T00:22:48;2.63;;;1.40;;
21233;SDS011;10774;42.178;26.578;2023-07-29T00:25:15;3.00;;;1.23;;
21233;SDS011;10774;42.178;26.578;2023-07-29T00:27:41;2.72;;;1.20;;
21233;SDS011;10774;42.178;26.578;2023-07-29T00:30:07;3.80;;;1.40;;
21233;SDS011;10774;42.178;26.578;2023-07-29T00:32:33;2.33;;;1.30;;
21233;SDS011;10774;42.178;26.578;2023-07-29T00:34:58;2.40;;;1.20;;
21233;SDS011;10774;42.178;26.578;2023-07-29T00:37:25;2.15;;;1.08;;
21233;SDS011;10774;42.178;26.578;2023-07-29T00:39:51;3.25;;;1.10;;
21233;SDS011;10774;42.178;26.578;2023-07-29T00:42:16;2.13;;;1.40;;
21233;SDS011;10774;42.178;26.578;2023-07-29T00:44:42;2.33;;;0.93;;
21233;SDS011;10774;42.178;26.578;2023-07-29T00:47:07;3.50;;;1.38;;
21233;SDS011;10774;42.178;26.578;2023-07-29T00:49:33;2.90;;;1.10;;
21233;SDS011;10774;42.178;26.578;2023-07-29T00:51:59;2.78;;;1.27;;
21233;SDS011;10774;42.178;26.578;2023-07-29T00:54:24;2.25;;;1.30;;
21233;SDS011;10774;42.178;26.578;2023-07-29T00:56:50;2.38;;;1.23;;
21233;SDS011;10774;42.178;26.578;2023-07-29T00:59:16;2.30;;;1.20;;
21233;SDS011;10774;42.178;26.578;2023-07-29T01:01:41;2.45;;;1.30;;
21233;SDS011;10774;42.178;26.578;2023-07-29T01:04:07;3.05;;;1.35;;
21233;SDS011;10774;42.178;26.578;2023-07-29T01:06:41;3.35;;;1.45;;
21233;SDS011;10774;42.178;26.578;2023-07-29T01:17:51;1.42;;;1.13;;
21233;SDS011;10774;42.178;26.578;2023-07-29T01:20:19;3.25;;;1.40;;
21233;SDS011;10774;42.178;26.578;2023-07-29T01:22:45;3.40;;;1.50;;
21233;SDS011;10774;42.178;26.578;2023-07-29T01:25:14;4.47;;;1.30;;
21233;SDS011;10774;42.178;26.578;2023-07-29T01:27:41;2.65;;;1.38;;
21233;SDS011;10774;42.178;26.578;2023-07-29T01:30:08;2.33;;;1.38;;
21233;SDS011;10774;42.178;26.578;2023-07-29T01:37:55;4.28;;;1.30;;
21233;SDS011;10774;42.178;26.578;2023-07-29T01:40:27;3.92;;;1.58;;
21233;SDS011;10774;42.178;26.578;2023-07-29T01:42:53;2.75;;;1.60;;
21233;SDS011;10774;42.178;26.578;2023-07-29T01:45:19;3.92;;;1.38;;
21233;SDS011;10774;42.178;26.578;2023-07-29T01:47:49;2.35;;;1.33;;
21233;SDS011;10774;42.178;26.578;2023-07-29T01:50:15;2.95;;;1.70;;
21233;SDS011;10774;42.178;26.578;2023-07-29T01:52:40;1.60;;;1.38;;
21233;SDS011;10774;42.178;26.578;2023-07-29T01:55:05;3.60;;;1.33;;
21233;SDS011;10774;42.178;26.578;2023-07-29T01:57:31;3.15;;;1.48;;
21233;SDS011;10774;42.178;26.578;2023-07-29T01:59:56;2.63;;;1.30;;
21233;SDS011;10774;42.178;26.578;2023-07-29T02:02:22;2.35;;;1.45;;
21233;SDS011;10774;42.178;26.578;2023-07-29T02:04:47;3.58;;;1.10;;
21233;SDS011;10774;42.178;26.578;2023-07-29T02:07:18;2.78;;;1.70;;
21233;SDS011;10774;42.178;26.578;2023-07-29T02:09:44;2.45;;;1.67;;
21233;SDS011;10774;42.178;26.578;2023-07-29T02:12:10;2.08;;;1.25;;
21233;SDS011;10774;42.178;26.578;2023-07-29T02:14:35;2.70;;;1.42;;
21233;SDS011;10774;42.178;26.578;2023-07-29T02:17:01;2.95;;;1.63;;
21233;SDS011;10774;42.178;26.578;2023-07-29T02:19:26;2.65;;;1.33;;
21233;SDS011;10774;42.178;26.578;2023-07-29T02:21:51;2.90;;;1.60;;
21233;SDS011;10774;42.178;26.578;2023-07-29T02:24:17;1.80;;;1.30;;
21233;SDS011;10774;42.178;26.578;2023-07-29T02:26:42;2.00;;;1.25;;
21233;SDS011;10774;42.178;26.578;2023-07-29T02:29:08;3.53;;;1.30;;
21233;SDS011;10774;42.178;26.578;2023-07-29T02:31:33;2.47;;;1.58;;
21233;SDS011;10774;42.178;26.578;2023-07-29T02:33:59;1.65;;;1.33;;
21233;SDS011;10774;42.178;26.578;2023-07-29T02:36:25;1.52;;;1.38;;
21233;SDS011;10774;42.178;26.578;2023-07-29T02:38:50;3.00;;;1.75;;
21233;SDS011;10774;42.178;26.578;2023-07-29T02:41:16;3.75;;;1.63;;
21233;SDS011;10774;42.178;26.578;2023-07-29T02:43:47;6.15;;;2.65;;
21233;SDS011;10774;42.178;26.578;2023-07-29T02:46:14;6.38;;;2.70;;
21233;SDS011;10774;42.178;26.578;2023-07-29T02:48:39;3.92;;;2.38;;
21233;SDS011;10774;42.178;26.578;2023-07-29T02:51:04;3.53;;;1.90;;
21233;SDS011;10774;42.178;26.578;2023-07-29T02:53:30;2.75;;;1.60;;
21233;SDS011;10774;42.178;26.578;2023-07-29T02:55:55;6.55;;;1.77;;
21233;SDS011;10774;42.178;26.578;2023-07-29T02:58:20;4.55;;;1.38;;
21233;SDS011;10774;42.178;26.578;2023-07-29T03:00:46;2.78;;;1.50;;
21233;SDS011;10774;42.178;26.578;2023-07-29T03:03:13;6.47;;;2.10;;
21233;SDS011;10774;42.178;26.578;2023-07-29T03:05:39;5.85;;;2.80;;
21233;SDS011;10774;42.178;26.578;2023-07-29T03:08:05;3.70;;;2.38;;
21233;SDS011;10774;42.178;26.578;2023-07-29T03:10:30;6.55;;;2.17;;
21233;SDS011;10774;42.178;26.578;2023-07-29T03:12:56;2.40;;;1.92;;
21233;SDS011;10774;42.178;26.578;2023-07-29T03:15:24;3.35;;;1.73;;
21233;SDS011;10774;42.178;26.578;2023-07-29T03:17:52;2.53;;;1.80;;
21233;SDS011;10774;42.178;26.578;2023-07-29T03:20:17;3.35;;;2.10;;
21233;SDS011;10774;42.178;26.578;2023-07-29T03:22:43;6.95;;;2.17;;
21233;SDS011;10774;42.178;26.578;2023-07-29T03:25:09;3.05;;;1.75;;
21233;SDS011;10774;42.178;26.578;2023-07-29T03:27:35;4.65;;;1.90;;
21233;SDS011;10774;42.178;26.578;2023-07-29T03:30:02;5.57;;;2.28;;
21233;SDS011;10774;42.178;26.578;2023-07-29T03:32:28;7.35;;;2.17;;
21233;SDS011;10774;42.178;26.578;2023-07-29T03:34:53;4.25;;;2.20;;
21233;SDS011;10774;42.178;26.578;2023-07-29T03:37:19;6.00;;;2.25;;
21233;SDS011;10774;42.178;26.578;2023-07-29T03:39:46;5.43;;;2.30;;
21233;SDS011;10774;42.178;26.578;2023-07-29T03:42:11;5.15;;;2.42;;
21233;SDS011;10774;42.178;26.578;2023-07-29T03:44:37;5.68;;;2.10;;
21233;SDS011;10774;42.178;26.578;2023-07-29T03:47:04;5.22;;;2.20;;
21233;SDS011;10774;42.178;26.578;2023-07-29T03:49:30;6.47;;;2.25;;
21233;SDS011;10774;42.178;26.578;2023-07-29T03:51:56;3.83;;;2.10;;
21233;SDS011;10774;42.178;26.578;2023-07-29T03:54:21;5.65;;;1.80;;
21233;SDS011;10774;42.178;26.578;2023-07-29T03:56:46;2.10;;;1.48;;
21233;SDS011;10774;42.178;26.578;2023-07-29T03:59:12;8.15;;;1.73;;
21233;SDS011;10774;42.178;26.578;2023-07-29T04:01:37;5.93;;;2.17;;
21233;SDS011;10774;42.178;26.578;2023-07-29T04:04:02;3.42;;;1.60;;
21233;SDS011;10774;42.178;26.578;2023-07-29T04:06:28;2.13;;;1.73;;
21233;SDS011;10774;42.178;26.578;2023-07-29T04:08:53;4.95;;;1.83;;
21233;SDS011;10774;42.178;26.578;2023-07-29T04:11:19;9.18;;;2.55;;
21233;SDS011;10774;42.178;26.578;2023-07-29T04:13:45;8.00;;;2.95;;
21233;SDS011;10774;42.178;26.578;2023-07-29T04:16:10;8.75;;;2.97;;
21233;SDS011;10774;42.178;26.578;2023-07-29T04:18:35;5.28;;;2.00;;
21233;SDS011;10774;42.178;26.578;2023-07-29T04:21:01;2.53;;;1.58;;
21233;SDS011;10774;42.178;26.578;2023-07-29T04:23:27;7.55;;;1.88;;
21233;SDS011;10774;42.178;26.578;2023-07-29T04:25:52;1.95;;;1.48;;
21233;SDS011;10774;42.178;26.578;2023-07-29T04:28:17;10.40;;;1.63;;
21233;SDS011;10774;42.178;26.578;2023-07-29T04:30:43;2.13;;;1.60;;
21233;SDS011;10774;42.178;26.578;2023-07-29T04:33:08;4.55;;;1.30;;
21233;SDS011;10774;42.178;26.578;2023-07-29T04:35:34;4.55;;;1.50;;
21233;SDS011;10774;42.178;26.578;2023-07-29T04:37:59;6.55;;;1.40;;
21233;SDS011;10774;42.178;26.578;2023-07-29T04:40:24;2.45;;;1.30;;
21233;SDS011;10774;42.178;26.578;2023-07-29T04:42:51;2.30;;;1.92;;
21233;SDS011;10774;42.178;26.578;2023-07-29T04:45:16;3.30;;;1.33;;
21233;SDS011;10774;42.178;26.578;2023-07-29T04:47:42;3.42;;;1.55;;
21233;SDS011;10774;42.178;26.578;2023-07-29T04:50:07;4.18;;;1.50;;
21233;SDS011;10774;42.178;26.578;2023-07-29T04:52:33;2.35;;;1.70;;
21233;SDS011;10774;42.178;26.578;2023-07-29T04:54:59;6.72;;;2.20;;
21233;SDS011;10774;42.178;26.578;2023-07-29T04:57:24;2.60;;;1.80;;
21233;SDS011;10774;42.178;26.578;2023-07-29T04:59:49;4.00;;;1.67;;
21233;SDS011;10774;42.178;26.578;2023-07-29T05:02:15;78.50;;;6.68;;
21233;SDS011;10774;42.178;26.578;2023-07-29T05:04:40;12.32;;;2.33;;
21233;SDS011;10774;42.178;26.578;2023-07-29T05:07:06;4.85;;;1.65;;
21233;SDS011;10774;42.178;26.578;2023-07-29T05:09:31;11.48;;;2.47;;
21233;SDS011;10774;42.178;26.578;2023-07-29T05:11:57;4.03;;;1.70;;
21233;SDS011;10774;42.178;26.578;2023-07-29T05:14:22;29.45;;;3.45;;
21233;SDS011;10774;42.178;26.578;2023-07-29T05:16:47;7.88;;;1.70;;
21233;SDS011;10774;42.178;26.578;2023-07-29T05:19:13;5.25;;;1.50;;
21233;SDS011;10774;42.178;26.578;2023-07-29T05:21:38;5.43;;;1.70;;
21233;SDS011;10774;42.178;26.578;2023-07-29T05:24:04;4.95;;;1.33;;
21233;SDS011;10774;42.178;26.578;2023-07-29T05:26:30;6.10;;;1.70;;
21233;SDS011;10774;42.178;26.578;2023-07-29T05:28:55;7.63;;;1.63;;
21233;SDS011;10774;42.178;26.578;2023-07-29T05:31:21;4.97;;;1.83;;
21233;SDS011;10774;42.178;26.578;2023-07-29T05:33:48;5.07;;;1.70;;
21233;SDS011;10774;42.178;26.578;2023-07-29T05:36:13;4.70;;;2.15;;
21233;SDS011;10774;42.178;26.578;2023-07-29T05:38:39;3.55;;;2.03;;
21233;SDS011;10774;42.178;26.578;2023-07-29T05:41:04;5.78;;;2.38;;
21233;SDS011;10774;42.178;26.578;2023-07-29T05:43:30;4.88;;;2.10;;
21233;SDS011;10774;42.178;26.578;2023-07-29T05:45:55;4.25;;;2.15;;
21233;SDS011;10774;42.178;26.578;2023-07-29T05:48:21;5.40;;;1.90;;
21233;SDS011;10774;42.178;26.578;2023-07-29T05:50:46;5.32;;;2.80;;
21233;SDS011;10774;42.178;26.578;2023-07-29T05:53:12;4.93;;;2.13;;
21233;SDS011;10774;42.178;26.578;2023-07-29T05:55:38;3.63;;;2.03;;
21233;SDS011;10774;42.178;26.578;2023-07-29T05:58:04;3.78;;;1.80;;
21233;SDS011;10774;42.178;26.578;2023-07-29T06:00:29;5.60;;;2.22;;
21233;SDS011;10774;42.178;26.578;2023-07-29T06:02:55;8.10;;;2.00;;
21233;SDS011;10774;42.178;26.578;2023-07-29T06:05:20;3.22;;;1.90;;
21233;SDS011;10774;42.178;26.578;2023-07-29T06:07:46;2.40;;;1.40;;
21233;SDS011;10774;42.178;26.578;2023-07-29T06:10:13;3.53;;;1.88;;
21233;SDS011;10774;42.178;26.578;2023-07-29T06:12:42;4.80;;;1.80;;
21233;SDS011;10774;42.178;26.578;2023-07-29T06:15:08;3.05;;;1.77;;
21233;SDS011;10774;42.178;26.578;2023-07-29T06:17:34;2.47;;;1.98;;
21233;SDS011;10774;42.178;26.578;2023-07-29T06:19:59;2.55;;;1.42;;
21233;SDS011;10774;42.178;26.578;2023-07-29T06:22:25;3.90;;;1.60;;
21233;SDS011;10774;42.178;26.578;2023-07-29T06:24:50;7.72;;;1.92;;
21233;SDS011;10774;42.178;26.578;2023-07-29T06:27:15;3.55;;;1.48;;
21233;SDS011;10774;42.178;26.578;2023-07-29T06:29:41;4.07;;;1.92;;
21233;SDS011;10774;42.178;26.578;2023-07-29T06:32:06;3.47;;;1.67;;
21233;SDS011;10774;42.178;26.578;2023-07-29T06:34:32;2.65;;;1.65;;
21233;SDS011;10774;42.178;26.578;2023-07-29T06:36:57;5.60;;;1.77;;
21233;SDS011;10774;42.178;26.578;2023-07-29T06:39:23;4.75;;;1.40;;
21233;SDS011;10774;42.178;26.578;2023-07-29T06:41:48;2.13;;;1.80;;
21233;SDS011;10774;42.178;26.578;2023-07-29T06:44:13;4.22;;;1.80;;
21233;SDS011;10774;42.178;26.578;2023-07-29T06:46:39;4.50;;;1.60;;
21233;SDS011;10774;42.178;26.578;2023-07-29T06:49:05;5.63;;;1.73;;
21233;SDS011;10774;42.178;26.578;2023-07-29T06:51:30;4.88;;;2.00;;
21233;SDS011;10774;42.178;26.578;2023-07-29T06:53:59;5.47;;;1.88;;
21233;SDS011;10774;42.178;26.578;2023-07-29T06:56:24;4.88;;;1.80;;
21233;SDS011;10774;42.178;26.578;2023-07-29T06:58:50;4.13;;;2.45;;
21233;SDS011;10774;42.178;26.578;2023-07-29T07:01:15;5.20;;;1.90;;
21233;SDS011;10774;42.178;26.578;2023-07-29T07:03:40;4.88;;;2.00;;
21233;SDS011;10774;42.178;26.578;2023-07-29T07:06:06;6.90;;;1.88;;
21233;SDS011;10774;42.178;26.578;2023-07-29T07:08:31;4.15;;;1.85;;
21233;SDS011;10774;42.178;26.578;2023-07-29T07:10:57;3.63;;;1.60;;
21233;SDS011;10774;42.178;26.578;2023-07-29T07:13:22;4.75;;;1.85;;
21233;SDS011;10774;42.178;26.578;2023-07-29T07:15:47;4.07;;;1.60;;
21233;SDS011;10774;42.178;26.578;2023-07-29T07:18:13;4.07;;;1.50;;
21233;SDS011;10774;42.178;26.578;2023-07-29T07:20:38;3.75;;;1.70;;
21233;SDS011;10774;42.178;26.578;2023-07-29T07:23:04;2.75;;;1.80;;
21233;SDS011;10774;42.178;26.578;2023-07-29T07:25:30;3.47;;;1.63;;
21233;SDS011;10774;42.178;26.578;2023-07-29T07:27:56;4.05;;;1.70;;
21233;SDS011;10774;42.178;26.578;2023-07-29T07:30:22;5.65;;;1.30;;
21233;SDS011;10774;42.178;26.578;2023-07-29T07:32:47;4.10;;;1.95;;
21233;SDS011;10774;42.178;26.578;2023-07-29T07:35:12;4.22;;;1.48;;
21233;SDS011;10774;42.178;26.578;2023-07-29T07:37:38;4.80;;;1.58;;
21233;SDS011;10774;42.178;26.578;2023-07-29T07:40:03;4.82;;;1.48;;
21233;SDS011;10774;42.178;26.578;2023-07-29T07:42:29;3.25;;;1.30;;
21233;SDS011;10774;42.178;26.578;2023-07-29T07:44:54;3.50;;;1.30;;
21233;SDS011;10774;42.178;26.578;2023-07-29T07:47:20;2.33;;;1.30;;
21233;SDS011;10774;42.178;26.578;2023-07-29T07:49:45;2.13;;;1.20;;
21233;SDS011;10774;42.178;26.578;2023-07-29T07:52:11;2.53;;;1.40;;
21233;SDS011;10774;42.178;26.578;2023-07-29T07:54:36;4.15;;;1.38;;
21233;SDS011;10774;42.178;26.578;2023-07-29T07:57:01;4.13;;;1.20;;
21233;SDS011;10774;42.178;26.578;2023-07-29T07:59:27;1.70;;;1.20;;
21233;SDS011;10774;42.178;26.578;2023-07-29T08:01:52;2.08;;;1.25;;
21233;SDS011;10774;42.178;26.578;2023-07-29T08:04:18;5.32;;;2.10;;
21233;SDS011;10774;42.178;26.578;2023-07-29T08:06:43;4.10;;;2.42;;
21233;SDS011;10774;42.178;26.578;2023-07-29T08:09:09;1.90;;;1.25;;
21233;SDS011;10774;42.178;26.578;2023-07-29T08:11:34;2.20;;;1.20;;
21233;SDS011;10774;42.178;26.578;2023-07-29T08:13:59;4.65;;;1.35;;
21233;SDS011;10774;42.178;26.578;2023-07-29T08:16:25;2.78;;;1.40;;
21233;SDS011;10774;42.178;26.578;2023-07-29T08:18:50;5.40;;;1.50;;
21233;SDS011;10774;42.178;26.578;2023-07-29T08:21:16;4.25;;;1.30;;
21233;SDS011;10774;42.178;26.578;2023-07-29T08:23:41;5.05;;;1.20;;
21233;SDS011;10774;42.178;26.578;2023-07-29T08:26:06;3.30;;;1.25;;
21233;SDS011;10774;42.178;26.578;2023-07-29T08:28:33;2.33;;;1.40;;
21233;SDS011;10774;42.178;26.578;2023-07-29T08:31:04;2.00;;;1.30;;
21233;SDS011;10774;42.178;26.578;2023-07-29T08:33:30;3.95;;;1.70;;
21233;SDS011;10774;42.178;26.578;2023-07-29T08:35:58;2.47;;;1.27;;
21233;SDS011;10774;42.178;26.578;2023-07-29T08:38:24;4.07;;;1.15;;
21233;SDS011;10774;42.178;26.578;2023-07-29T08:43:33;4.00;;;1.30;;
21233;SDS011;10774;42.178;26.578;2023-07-29T08:46:03;1.45;;;1.10;;
21233;SDS011;10774;42.178;26.578;2023-07-29T08:48:36;3.78;;;1.88;;
21233;SDS011;10774;42.178;26.578;2023-07-29T08:51:05;2.88;;;1.15;;
21233;SDS011;10774;42.178;26.578;2023-07-29T08:53:33;2.75;;;1.23;;
21233;SDS011;10774;42.178;26.578;2023-07-29T08:55:59;2.58;;;1.02;;
21233;SDS011;10774;42.178;26.578;2023-07-29T08:58:25;1.42;;;1.15;;
21233;SDS011;10774;42.178;26.578;2023-07-29T09:00:51;2.17;;;1.15;;
21233;SDS011;10774;42.178;26.578;2023-07-29T09:03:17;3.05;;;1.30;;
21233;SDS011;10774;42.178;26.578;2023-07-29T09:05:43;7.10;;;1.50;;
21233;SDS011;10774;42.178;26.578;2023-07-29T09:08:09;2.35;;;0.98;;
21233;SDS011;10774;42.178;26.578;2023-07-29T09:10:35;3.47;;;1.02;;
21233;SDS011;10774;42.178;26.578;2023-07-29T09:13:02;3.47;;;1.10;;
21233;SDS011;10774;42.178;26.578;2023-07-29T09:15:32;1.33;;;1.05;;
21233;SDS011;10774;42.178;26.578;2023-07-29T09:17:58;2.58;;;1.15;;
21233;SDS011;10774;42.178;26.578;2023-07-29T09:20:33;2.13;;;1.00;;
21233;SDS011;10774;42.178;26.578;2023-07-29T09:22:59;1.63;;;1.08;;
21233;SDS011;10774;42.178;26.578;2023-07-29T09:25:28;1.83;;;1.00;;
21233;SDS011;10774;42.178;26.578;2023-07-29T09:28:01;2.70;;;1.10;;
21233;SDS011;10774;42.178;26.578;2023-07-29T09:30:27;1.83;;;1.00;;
21233;SDS011;10774;42.178;26.578;2023-07-29T09:32:59;1.77;;;0.90;;
21233;SDS011;10774;42.178;26.578;2023-07-29T09:35:27;1.90;;;1.00;;
21233;SDS011;10774;42.178;26.578;2023-07-29T09:37:55;2.90;;;1.20;;
21233;SDS011;10774;42.178;26.578;2023-07-29T09:40:20;1.73;;;1.10;;
21233;SDS011;10774;42.178;26.578;2023-07-29T09:42:49;1.48;;;0.93;;
21233;SDS011;10774;42.178;26.578;2023-07-29T09:47:51;1.30;;;1.00;;
21233;SDS011;10774;42.178;26.578;2023-07-29T09:50:17;2.58;;;0.98;;
21233;SDS011;10774;42.178;26.578;2023-07-29T09:52:43;3.10;;;1.40;;
21233;SDS011;10774;42.178;26.578;2023-07-29T09:55:12;2.08;;;1.27;;
21233;SDS011;10774;42.178;26.578;2023-07-29T09:57:39;3.28;;;1.17;;
21233;SDS011;10774;42.178;26.578;2023-07-29T10:00:05;2.55;;;0.98;;
21233;SDS011;10774;42.178;26.578;2023-07-29T10:02:36;2.10;;;1.10;;
21233;SDS011;10774;42.178;26.578;2023-07-29T10:05:03;1.92;;;0.90;;
21233;SDS011;10774;42.178;26.578;2023-07-29T10:07:30;5.57;;;1.40;;
21233;SDS011;10774;42.178;26.578;2023-07-29T10:09:56;2.13;;;0.90;;
21233;SDS011;10774;42.178;26.578;2023-07-29T10:12:24;2.28;;;1.38;;
21233;SDS011;10774;42.178;26.578;2023-07-29T10:14:50;3.45;;;1.20;;
21233;SDS011;10774;42.178;26.578;2023-07-29T10:17:15;3.05;;;1.23;;
21233;SDS011;10774;42.178;26.578;2023-07-29T10:19:41;3.60;;;1.58;;
21233;SDS011;10774;42.178;26.578;2023-07-29T10:22:08;2.80;;;1.10;;
21233;SDS011;10774;42.178;26.578;2023-07-29T10:24:36;1.67;;;1.00;;
21233;SDS011;10774;42.178;26.578;2023-07-29T10:27:06;2.42;;;1.10;;
21233;SDS011;10774;42.178;26.578;2023-07-29T10:29:35;1.33;;;1.02;;
21233;SDS011;10774;42.178;26.578;2023-07-29T10:32:04;2.78;;;1.10;;
21233;SDS011;10774;42.178;26.578;2023-07-29T10:34:31;2.45;;;1.00;;
21233;SDS011;10774;42.178;26.578;2023-07-29T10:36:59;2.13;;;1.00;;
21233;SDS011;10774;42.178;26.578;2023-07-29T10:39:25;1.85;;;1.27;;
21233;SDS011;10774;42.178;26.578;2023-07-29T10:41:54;2.58;;;0.73;;
21233;SDS011;10774;42.178;26.578;2023-07-29T10:47:13;2.42;;;1.10;;
21233;SDS011;10774;42.178;26.578;2023-07-29T10:49:40;3.15;;;0.82;;
21233;SDS011;10774;42.178;26.578;2023-07-29T10:52:06;2.08;;;0.90;;
21233;SDS011;10774;42.178;26.578;2023-07-29T10:54:41;2.13;;;0.95;;
21233;SDS011;10774;42.178;26.578;2023-07-29T10:57:14;1.40;;;1.00;;
21233;SDS011;10774;42.178;26.578;2023-07-29T10:59:41;2.22;;;0.88;;
21233;SDS011;10774;42.178;26.578;2023-07-29T11:02:18;2.35;;;0.93;;
21233;SDS011;10774;42.178;26.578;2023-07-29T11:04:50;1.92;;;1.17;;
21233;SDS011;10774;42.178;26.578;2023-07-29T11:17:55;1.85;;;1.02;;
21233;SDS011;10774;42.178;26.578;2023-07-29T11:20:23;1.45;;;0.70;;
21233;SDS011;10774;42.178;26.578;2023-07-29T11:22:50;1.83;;;1.08;;
21233;SDS011;10774;42.178;26.578;2023-07-29T11:25:16;2.38;;;0.98;;
21233;SDS011;10774;42.178;26.578;2023-07-29T11:27:43;1.48;;;1.05;;
21233;SDS011;10774;42.178;26.578;2023-07-29T11:30:10;1.42;;;0.82;;
21233;SDS011;10774;42.178;26.578;2023-07-29T11:32:37;1.77;;;0.90;;
21233;SDS011;10774;42.178;26.578;2023-07-29T11:37:33;3.58;;;0.95;;
21233;SDS011;10774;42.178;26.578;2023-07-29T11:39:59;1.33;;;0.88;;
21233;SDS011;10774;42.178;26.578;2023-07-29T11:42:26;2.00;;;0.82;;
21233;SDS011;10774;42.178;26.578;2023-07-29T11:44:52;1.27;;;1.05;;
21233;SDS011;10774;42.178;26.578;2023-07-29T11:47:17;3.22;;;0.85;;
21233;SDS011;10774;42.178;26.578;2023-07-29T11:49:42;3.10;;;1.13;;
21233;SDS011;10774;42.178;26.578;2023-07-29T11:52:08;3.13;;;0.80;;
21233;SDS011;10774;42.178;26.578;2023-07-29T11:54:35;1.08;;;0.77;;
21233;SDS011;10774;42.178;26.578;2023-07-29T11:57:03;0.90;;;0.90;;
21233;SDS011;10774;42.178;26.578;2023-07-29T11:59:33;1.90;;;1.00;;
21233;SDS011;10774;42.178;26.578;2023-07-29T12:02:13;3.22;;;0.98;;
21233;SDS011;10774;42.178;26.578;2023-07-29T12:04:41;2.00;;;0.90;;
21233;SDS011;10774;42.178;26.578;2023-07-29T12:07:08;2.08;;;1.00;;
21233;SDS011;10774;42.178;26.578;2023-07-29T12:09:34;1.17;;;1.00;;
21233;SDS011;10774;42.178;26.578;2023-07-29T12:12:01;1.00;;;0.80;;
21233;SDS011;10774;42.178;26.578;2023-07-29T12:14:28;3.05;;;0.88;;
21233;SDS011;10774;42.178;26.578;2023-07-29T12:16:54;1.00;;;0.80;;
21233;SDS011;10774;42.178;26.578;2023-07-29T12:19:20;1.75;;;0.98;;
21233;SDS011;10774;42.178;26.578;2023-07-29T12:21:47;6.53;;;1.25;;
21233;SDS011;10774;42.178;26.578;2023-07-29T12:24:13;1.73;;;1.00;;
21233;SDS011;10774;42.178;26.578;2023-07-29T12:26:39;1.73;;;1.10;;
21233;SDS011;10774;42.178;26.578;2023-07-29T12:29:12;1.55;;;0.90;;
21233;SDS011;10774;42.178;26.578;2023-07-29T12:31:38;1.23;;;0.80;;
21233;SDS011;10774;42.178;26.578;2023-07-29T12:34:04;1.77;;;0.90;;
21233;SDS011;10774;42.178;26.578;2023-07-29T12:36:42;2.08;;;0.90;;
21233;SDS011;10774;42.178;26.578;2023-07-29T12:39:18;1.70;;;0.95;;
21233;SDS011;10774;42.178;26.578;2023-07-29T12:41:45;2.13;;;0.85;;
21233;SDS011;10774;42.178;26.578;2023-07-29T12:44:11;4.10;;;0.90;;
21233;SDS011;10774;42.178;26.578;2023-07-29T12:46:36;1.35;;;0.93;;
21233;SDS011;10774;42.178;26.578;2023-07-29T12:49:02;1.88;;;1.08;;
21233;SDS011;10774;42.178;26.578;2023-07-29T12:51:27;2.53;;;1.10;;
21233;SDS011;10774;42.178;26.578;2023-07-29T12:53:53;3.03;;;1.00;;
21233;SDS011;10774;42.178;26.578;2023-07-29T12:56:19;2.45;;;1.27;;
21233;SDS011;10774;42.178;26.578;2023-07-29T12:58:44;1.85;;;0.88;;
21233;SDS011;10774;42.178;26.578;2023-07-29T13:01:12;1.25;;;0.90;;
21233;SDS011;10774;42.178;26.578;2023-07-29T13:03:42;1.30;;;0.85;;
21233;SDS011;10774;42.178;26.578;2023-07-29T13:06:07;2.72;;;0.75;;
21233;SDS011;10774;42.178;26.578;2023-07-29T13:08:34;3.45;;;0.90;;
21233;SDS011;10774;42.178;26.578;2023-07-29T13:10:59;0.85;;;0.75;;
21233;SDS011;10774;42.178;26.578;2023-07-29T13:13:25;1.17;;;0.88;;
21233;SDS011;10774;42.178;26.578;2023-07-29T13:15:50;2.58;;;1.05;;
21233;SDS011;10774;42.178;26.578;2023-07-29T13:18:16;2.78;;;0.90;;
21233;SDS011;10774;42.178;26.578;2023-07-29T13:20:41;2.55;;;0.90;;
21233;SDS011;10774;42.178;26.578;2023-07-29T13:23:07;1.35;;;0.95;;
21233;SDS011;10774;42.178;26.578;2023-07-29T13:25:32;2.00;;;1.15;;
21233;SDS011;10774;42.178;26.578;2023-07-29T13:27:58;1.38;;;1.10;;
21233;SDS011;10774;42.178;26.578;2023-07-29T13:30:23;1.35;;;1.00;;
21233;SDS011;10774;42.178;26.578;2023-07-29T13:32:49;1.30;;;0.82;;
21233;SDS011;10774;42.178;26.578;2023-07-29T13:35:14;3.10;;;1.05;;
21233;SDS011;10774;42.178;26.578;2023-07-29T13:37:40;1.67;;;1.10;;
21233;SDS011;10774;42.178;26.578;2023-07-29T13:40:05;2.95;;;1.20;;
21233;SDS011;10774;42.178;26.578;2023-07-29T13:42:31;2.40;;;1.20;;
21233;SDS011;10774;42.178;26.578;2023-07-29T13:44:57;1.40;;;1.00;;
21233;SDS011;10774;42.178;26.578;2023-07-29T13:47:22;1.17;;;1.00;;
21233;SDS011;10774;42.178;26.578;2023-07-29T13:49:47;2.10;;;1.30;;
21233;SDS011;10774;42.178;26.578;2023-07-29T13:52:13;2.30;;;1.20;;
21233;SDS011;10774;42.178;26.578;2023-07-29T13:54:39;1.60;;;0.95;;
21233;SDS011;10774;42.178;26.578;2023-07-29T13:57:04;2.72;;;1.13;;
21233;SDS011;10774;42.178;26.578;2023-07-29T13:59:31;4.28;;;1.00;;
21233;SDS011;10774;42.178;26.578;2023-07-29T14:01:57;3.80;;;1.20;;
21233;SDS011;10774;42.178;26.578;2023-07-29T14:04:22;1.40;;;1.10;;
21233;SDS011;10774;42.178;26.578;2023-07-29T14:06:48;1.45;;;1.08;;
21233;SDS011;10774;42.178;26.578;2023-07-29T14:09:13;2.05;;;1.20;;
21233;SDS011;10774;42.178;26.578;2023-07-29T14:11:39;2.05;;;0.90;;
21233;SDS011;10774;42.178;26.578;2023-07-29T14:14:04;1.92;;;1.20;;
21233;SDS011;10774;42.178;26.578;2023-07-29T14:16:30;1.90;;;1.00;;
21233;SDS011;10774;42.178;26.578;2023-07-29T14:18:55;1.17;;;1.00;;
21233;SDS011;10774;42.178;26.578;2023-07-29T14:21:20;1.80;;;1.23;;
21233;SDS011;10774;42.178;26.578;2023-07-29T14:23:46;2.17;;;1.20;;
21233;SDS011;10774;42.178;26.578;2023-07-29T14:26:11;3.67;;;1.10;;
21233;SDS011;10774;42.178;26.578;2023-07-29T14:28:37;1.52;;;0.90;;
21233;SDS011;10774;42.178;26.578;2023-07-29T14:31:02;1.23;;;1.10;;
21233;SDS011;10774;42.178;26.578;2023-07-29T14:33:27;1.52;;;1.00;;
21233;SDS011;10774;42.178;26.578;2023-07-29T14:35:53;2.75;;;1.15;;
21233;SDS011;10774;42.178;26.578;2023-07-29T14:38:18;1.58;;;1.10;;
21233;SDS011;10774;42.178;26.578;2023-07-29T14:40:47;1.52;;;0.98;;
21233;SDS011;10774;42.178;26.578;2023-07-29T14:43:13;1.10;;;0.93;;
21233;SDS011;10774;42.178;26.578;2023-07-29T14:45:38;2.10;;;1.10;;
21233;SDS011;10774;42.178;26.578;2023-07-29T14:48:04;3.50;;;1.10;;
21233;SDS011;10774;42.178;26.578;2023-07-29T14:50:29;1.85;;;1.25;;
21233;SDS011;10774;42.178;26.578;2023-07-29T14:52:55;2.67;;;1.23;;
21233;SDS011;10774;42.178;26.578;2023-07-29T14:55:20;2.97;;;1.30;;
21233;SDS011;10774;42.178;26.578;2023-07-29T14:57:46;1.75;;;1.27;;
21233;SDS011;10774;42.178;26.578;2023-07-29T15:00:11;1.83;;;0.90;;
21233;SDS011;10774;42.178;26.578;2023-07-29T15:02:37;1.50;;;1.30;;